Time;durP1;ratioP1;P1;durP2;ratioP2;P2;SDS_P1;SDS_P2;PMS_P1;PMS_P2;Temp;Humidity;BMP_temperature;BMP_pressure;BME280_temperature;BME280_humidity;BME280_pressure;Samples;Min_cycle;Max_cycle;Signal;HPM_P1;HPM_P2
2021/06/07 00:01:39;;;;;;;48.17;34.80;;;16.00;99.90;;;;;;5094820;28;20016;-72
2021/06/07 00:04:06;;;;;;;47.13;34.75;;;16.00;99.90;;;;;;5094465;28;20024;-73
2021/06/07 00:06:32;;;;;;;55.03;35.30;;;16.00;99.90;;;;;;5093891;28;20016;-73
2021/06/07 00:08:57;;;;;;;49.03;34.40;;;16.00;99.90;;;;;;5095265;28;20028;-72
2021/06/07 00:11:24;;;;;;;49.22;34.65;;;16.00;99.90;;;;;;5076537;28;20024;-72
2021/06/07 00:13:50;;;;;;;53.17;35.67;;;16.00;99.90;;;;;;5094048;28;20100;-72
2021/06/07 00:16:16;;;;;;;50.38;34.35;;;16.00;99.90;;;;;;5093696;28;20028;-72
2021/06/07 00:18:42;;;;;;;48.92;35.45;;;16.00;99.90;;;;;;5093289;28;20493;-73
2021/06/07 00:21:16;;;;;;;50.55;33.47;;;15.90;99.90;;;;;;5094743;28;20028;-72
2021/06/07 00:23:43;;;;;;;50.30;35.03;;;16.00;99.90;;;;;;5093349;28;20012;-72
2021/06/07 00:26:08;;;;;;;49.40;35.85;;;16.00;99.90;;;;;;5094757;28;20017;-72
2021/06/07 00:28:35;;;;;;;52.75;35.85;;;15.90;99.90;;;;;;5094377;28;20047;-72
2021/06/07 00:31:04;;;;;;;52.10;35.97;;;15.90;99.90;;;;;;5076190;28;20028;-72
2021/06/07 00:33:30;;;;;;;50.88;35.38;;;16.00;99.90;;;;;;5076107;28;20104;-72
2021/06/07 00:35:56;;;;;;;49.35;34.97;;;16.00;99.90;;;;;;5092932;28;20491;-72
2021/06/07 00:38:22;;;;;;;52.45;35.53;;;16.00;99.90;;;;;;5092849;28;20020;-72
2021/06/07 00:40:47;;;;;;;46.42;32.92;;;16.00;99.90;;;;;;5076066;28;20020;-72
2021/06/07 00:43:13;;;;;;;43.75;32.63;;;16.00;99.90;;;;;;5092844;28;20420;-72
2021/06/07 00:45:40;;;;;;;43.67;31.83;;;16.00;99.90;;;;;;5093222;28;20031;-72
2021/06/07 00:48:07;;;;;;;49.70;31.88;;;16.00;99.90;;;;;;5092797;28;20012;-73
2021/06/07 00:50:53;;;;;;;46.13;30.77;;;16.00;99.90;;;;;;5092709;28;20481;-72
2021/06/07 00:53:19;;;;;;;42.60;30.48;;;16.00;99.90;;;;;;5094763;28;20028;-73
2021/06/07 00:55:50;;;;;;;43.60;30.15;;;16.00;99.90;;;;;;5075881;28;20024;-72
2021/06/07 00:58:19;;;;;;;41.97;30.17;;;16.00;99.90;;;;;;5093852;28;20020;-72
2021/06/07 01:00:45;;;;;;;39.90;28.38;;;16.00;99.90;;;;;;5075623;28;20059;-73
2021/06/07 01:03:13;;;;;;;41.55;29.20;;;15.90;99.90;;;;;;5094388;28;20355;-72
2021/06/07 01:05:39;;;;;;;39.63;29.15;;;15.80;99.90;;;;;;5093245;28;20362;-72
2021/06/07 01:08:06;;;;;;;41.97;30.73;;;15.80;99.90;;;;;;5092814;28;20477;-72
2021/06/07 01:10:33;;;;;;;42.05;30.00;;;15.70;99.90;;;;;;5093212;28;20024;-72
2021/06/07 01:13:00;;;;;;;43.60;30.75;;;15.70;99.90;;;;;;5092768;28;20119;-72
2021/06/07 01:15:27;;;;;;;44.60;31.80;;;15.70;99.90;;;;;;5094013;28;20027;-72
2021/06/07 01:17:53;;;;;;;44.05;31.05;;;15.70;99.90;;;;;;5092704;28;20115;-72
2021/06/07 01:20:21;;;;;;;41.70;30.40;;;15.70;99.90;;;;;;5092213;28;20044;-72
2021/06/07 01:22:50;;;;;;;43.00;29.60;;;15.70;99.90;;;;;;5093881;28;20377;-72
2021/06/07 01:25:21;;;;;;;41.90;29.88;;;15.70;99.90;;;;;;5092961;28;20016;-72
2021/06/07 01:27:47;;;;;;;42.38;28.35;;;15.70;99.90;;;;;;5094048;28;20434;-72
2021/06/07 01:30:16;;;;;;;41.15;28.83;;;15.70;99.90;;;;;;5094002;28;20036;-72
2021/06/07 01:32:42;;;;;;;40.85;30.02;;;15.70;99.90;;;;;;5093474;28;20024;-72
2021/06/07 01:35:11;;;;;;;38.20;27.67;;;15.70;99.90;;;;;;5093705;28;20073;-72
2021/06/07 01:37:37;;;;;;;41.28;28.50;;;15.70;99.90;;;;;;5092741;28;20028;-72
2021/06/07 01:40:05;;;;;;;40.45;28.27;;;15.70;99.90;;;;;;5075185;28;20032;-73
2021/06/07 01:42:31;;;;;;;41.47;29.48;;;15.70;99.90;;;;;;5075568;28;20461;-73
2021/06/07 01:44:57;;;;;;;41.95;27.83;;;15.70;99.90;;;;;;5093630;28;20066;-72
2021/06/07 01:47:22;;;;;;;40.97;28.08;;;15.70;99.90;;;;;;5092110;28;20073;-72
2021/06/07 01:49:48;;;;;;;41.40;29.10;;;15.70;99.90;;;;;;5093595;28;20031;-72
2021/06/07 01:52:14;;;;;;;45.67;30.75;;;15.70;99.90;;;;;;5075187;28;20024;-72
2021/06/07 01:54:40;;;;;;;46.30;31.23;;;15.60;99.90;;;;;;5092144;28;20024;-72
2021/06/07 01:57:06;;;;;;;49.08;31.98;;;15.60;99.90;;;;;;5093275;28;20032;-72
2021/06/07 01:59:32;;;;;;;46.97;31.42;;;15.60;99.90;;;;;;5093174;28;20031;-72
2021/06/07 02:01:57;;;;;;;52.50;32.45;;;15.50;99.90;;;;;;5092459;28;20028;-72
2021/06/07 02:04:23;;;;;;;53.65;33.38;;;15.60;99.90;;;;;;5092298;28;20099;-72
2021/06/07 02:06:49;;;;;;;59.03;36.63;;;15.50;99.90;;;;;;5092270;28;20116;-72
2021/06/07 02:09:15;;;;;;;57.10;36.20;;;15.50;99.90;;;;;;5092509;28;20024;-72
2021/06/07 02:11:41;;;;;;;56.85;36.47;;;15.50;99.90;;;;;;5093708;28;20026;-72
2021/06/07 02:14:07;;;;;;;57.42;36.72;;;15.50;99.90;;;;;;5092659;28;20028;-72
2021/06/07 02:16:35;;;;;;;56.50;36.15;;;15.50;99.90;;;;;;5093703;28;20483;-73
2021/06/07 02:19:03;;;;;;;59.17;35.20;;;15.40;99.90;;;;;;5092849;28;20097;-72
2021/06/07 02:21:29;;;;;;;56.05;35.13;;;15.50;99.90;;;;;;5075837;28;20020;-73
2021/06/07 02:23:56;;;;;;;54.85;35.47;;;15.50;99.90;;;;;;5074923;28;20020;-72
2021/06/07 02:26:23;;;;;;;59.67;35.60;;;15.50;99.90;;;;;;5093243;28;20039;-72
2021/06/07 02:28:52;;;;;;;66.10;36.97;;;15.50;99.90;;;;;;5095793;28;20028;-72
2021/06/07 02:31:20;;;;;;;60.03;36.83;;;15.40;99.90;;;;;;5096738;28;20465;-72
2021/06/07 02:33:49;;;;;;;58.88;35.03;;;15.50;99.90;;;;;;5097248;28;20099;-71
2021/06/07 02:36:15;;;;;;;64.00;36.08;;;15.50;99.90;;;;;;5095425;28;20484;-71
2021/06/07 02:38:43;;;;;;;66.32;36.45;;;15.50;99.90;;;;;;5095287;28;20028;-72
2021/06/07 02:41:08;;;;;;;60.90;37.25;;;15.50;99.90;;;;;;5095585;28;20489;-72
2021/06/07 02:43:34;;;;;;;64.72;38.35;;;15.50;99.90;;;;;;5096927;28;20025;-72
2021/06/07 02:46:00;;;;;;;66.60;37.35;;;15.50;99.90;;;;;;5096352;28;20381;-72
2021/06/07 02:48:25;;;;;;;68.13;37.58;;;15.50;99.90;;;;;;5095670;28;20024;-72
2021/06/07 02:50:51;;;;;;;63.78;37.28;;;15.50;99.90;;;;;;5095651;28;20059;-72
2021/06/07 02:53:17;;;;;;;67.47;37.95;;;15.50;99.90;;;;;;5078043;28;20031;-72
2021/06/07 02:55:47;;;;;;;67.00;38.05;;;15.50;99.90;;;;;;5096486;28;20047;-72
2021/06/07 02:58:13;;;;;;;72.13;39.80;;;15.50;99.90;;;;;;5095251;28;20376;-72
2021/06/07 03:00:44;;;;;;;70.45;38.25;;;15.50;99.90;;;;;;5078389;28;20377;-73
2021/06/07 03:03:10;;;;;;;61.35;36.85;;;15.50;99.90;;;;;;5096540;28;20099;-73
2021/06/07 03:05:37;;;;;;;72.63;40.50;;;15.50;99.90;;;;;;5096226;28;20024;-72
2021/06/07 03:08:07;;;;;;;72.95;40.53;;;15.50;99.90;;;;;;5094734;28;20028;-72
2021/06/07 03:10:33;;;;;;;73.80;41.00;;;15.40;99.90;;;;;;5096184;28;20031;-72
2021/06/07 03:12:59;;;;;;;69.03;40.08;;;15.40;99.90;;;;;;5094672;28;20491;-72
2021/06/07 03:15:25;;;;;;;71.20;41.03;;;15.40;99.90;;;;;;5094865;28;20231;-72
2021/06/07 03:17:52;;;;;;;74.35;39.70;;;15.40;99.90;;;;;;5095088;28;20073;-72
2021/06/07 03:20:19;;;;;;;72.32;40.25;;;15.40;99.90;;;;;;5095475;28;20046;-72
2021/06/07 03:22:45;;;;;;;72.75;39.45;;;15.40;99.90;;;;;;5078075;28;20381;-72
2021/06/07 03:25:11;;;;;;;76.28;40.83;;;15.40;99.90;;;;;;5094972;28;20020;-72
2021/06/07 03:27:39;;;;;;;79.97;42.40;;;15.50;99.90;;;;;;5078210;28;20119;-72
2021/06/07 03:30:07;;;;;;;84.68;42.13;;;15.40;99.90;;;;;;5095778;28;20503;-72
2021/06/07 03:32:33;;;;;;;78.40;43.33;;;15.40;99.90;;;;;;5095703;28;20093;-72
2021/06/07 03:34:58;;;;;;;78.18;42.15;;;15.40;99.90;;;;;;5095959;28;20036;-72
2021/06/07 03:37:24;;;;;;;84.07;42.25;;;15.30;99.90;;;;;;5095319;28;20026;-72
2021/06/07 03:39:50;;;;;;;74.07;40.72;;;15.30;99.90;;;;;;5095468;28;20102;-72
2021/06/07 03:42:16;;;;;;;69.20;39.03;;;15.40;99.90;;;;;;5095499;28;20028;-72
2021/06/07 03:44:41;;;;;;;68.90;40.03;;;15.40;99.90;;;;;;5094776;28;20116;-72
2021/06/07 03:47:07;;;;;;;73.82;39.63;;;15.30;99.90;;;;;;5095439;28;20399;-72
2021/06/07 03:49:32;;;;;;;65.25;39.60;;;15.40;99.90;;;;;;5095089;28;20032;-72
2021/06/07 03:51:58;;;;;;;69.78;41.25;;;15.30;99.90;;;;;;5095102;28;20031;-72
2021/06/07 03:54:24;;;;;;;71.05;40.58;;;15.20;99.90;;;;;;5094115;28;20488;-72
2021/06/07 03:56:49;;;;;;;72.95;40.10;;;15.20;99.90;;;;;;5095517;28;20028;-72
2021/06/07 03:59:15;;;;;;;69.68;40.15;;;15.20;99.90;;;;;;5094843;28;20035;-72
2021/06/07 04:01:41;;;;;;;68.03;39.25;;;15.30;99.90;;;;;;5077061;28;20020;-72
2021/06/07 04:04:07;;;;;;;70.78;40.13;;;15.30;99.90;;;;;;5093981;28;20017;-72
2021/06/07 04:06:33;;;;;;;73.53;41.40;;;15.30;99.90;;;;;;5095086;28;20040;-72
2021/06/07 04:09:02;;;;;;;69.57;39.63;;;15.30;99.90;;;;;;5093606;28;20020;-72
2021/06/07 04:11:27;;;;;;;69.50;40.45;;;15.30;99.90;;;;;;5095001;28;20024;-71
2021/06/07 04:13:53;;;;;;;74.85;41.95;;;15.30;99.90;;;;;;5094631;28;20081;-72
2021/06/07 04:16:19;;;;;;;71.20;39.50;;;15.30;99.90;;;;;;5094910;28;20023;-72
2021/06/07 04:18:45;;;;;;;70.15;38.97;;;15.30;99.90;;;;;;5092984;28;20134;-72
2021/06/07 04:21:11;;;;;;;71.07;40.97;;;15.30;99.90;;;;;;5093329;28;20024;-72
2021/06/07 04:23:37;;;;;;;61.33;39.03;;;15.30;99.90;;;;;;5095015;28;20462;-71
2021/06/07 04:26:03;;;;;;;65.65;39.15;;;15.30;99.90;;;;;;5093569;28;20020;-72
2021/06/07 04:28:29;;;;;;;68.22;39.17;;;15.30;99.90;;;;;;5094665;28;20103;-72
2021/06/07 04:30:55;;;;;;;65.10;38.75;;;15.30;99.90;;;;;;5076229;28;20048;-72
2021/06/07 04:33:21;;;;;;;64.60;38.58;;;15.30;99.90;;;;;;5093421;28;20031;-71
2021/06/07 04:35:47;;;;;;;66.70;38.75;;;15.30;99.90;;;;;;5076213;28;20385;-72
2021/06/07 04:38:16;;;;;;;65.70;39.40;;;15.30;99.90;;;;;;5093584;28;20036;-72
2021/06/07 04:40:44;;;;;;;64.28;39.33;;;15.40;99.90;;;;;;5094396;28;20028;-72
2021/06/07 04:43:12;;;;;;;74.90;39.92;;;15.40;99.90;;;;;;5094432;28;20023;-72
2021/06/07 04:45:39;;;;;;;78.78;40.13;;;15.40;99.90;;;;;;5094090;28;20511;-72
2021/06/07 04:48:06;;;;;;;69.80;39.92;;;15.40;99.90;;;;;;5094310;28;20030;-72
2021/06/07 04:50:32;;;;;;;73.38;39.92;;;15.40;99.90;;;;;;5092755;28;20036;-72
2021/06/07 04:53:00;;;;;;;73.07;41.70;;;15.40;99.90;;;;;;5075953;28;20362;-72
2021/06/07 04:55:47;;;;;;;68.70;42.33;;;15.40;99.90;;;;;;5075856;28;20028;-72
2021/06/07 04:58:17;;;;;;;73.38;39.95;;;15.40;99.90;;;;;;5093877;28;20027;-72
2021/06/07 05:00:47;;;;;;;69.15;41.28;;;15.40;99.90;;;;;;5092609;28;20059;-72
2021/06/07 05:03:14;;;;;;;73.95;40.92;;;15.40;99.90;;;;;;5094342;28;20428;-72
2021/06/07 05:05:40;;;;;;;73.95;42.00;;;15.40;99.90;;;;;;5093150;28;20031;-72
2021/06/07 05:08:06;;;;;;;69.93;41.25;;;15.40;99.90;;;;;;5093986;28;20103;-72
2021/06/07 05:10:32;;;;;;;67.68;41.60;;;15.40;99.90;;;;;;5094029;28;20027;-72
2021/06/07 05:12:58;;;;;;;69.57;40.47;;;15.40;99.90;;;;;;5092963;28;20020;-72
2021/06/07 05:15:24;;;;;;;62.65;39.35;;;15.40;99.90;;;;;;5093184;28;20381;-72
2021/06/07 05:17:49;;;;;;;70.75;40.85;;;15.40;99.90;;;;;;5094225;28;20024;-72
2021/06/07 05:20:19;;;;;;;67.03;39.42;;;15.40;99.90;;;;;;5075316;28;20044;-72
2021/06/07 05:22:44;;;;;;;59.50;38.85;;;15.40;99.90;;;;;;5092726;28;20020;-72
2021/06/07 05:25:14;;;;;;;61.83;39.10;;;15.40;99.90;;;;;;5093635;28;20028;-72
2021/06/07 05:27:40;;;;;;;66.72;39.90;;;15.30;99.90;;;;;;5092354;28;20024;-72
2021/06/07 05:30:07;;;;;;;63.65;38.80;;;15.30;99.90;;;;;;5092666;28;20031;-72
2021/06/07 05:32:32;;;;;;;65.82;40.33;;;15.20;99.90;;;;;;5093087;28;20366;-72
2021/06/07 05:34:58;;;;;;;64.25;40.85;;;15.30;99.90;;;;;;5093977;28;20024;-72
2021/06/07 05:37:24;;;;;;;69.15;40.15;;;15.30;99.90;;;;;;5092815;28;20481;-72
2021/06/07 05:39:50;;;;;;;66.43;39.42;;;15.30;99.90;;;;;;5092132;28;20505;-72
2021/06/07 05:42:16;;;;;;;66.13;39.13;;;15.30;99.90;;;;;;5093693;28;20027;-72
2021/06/07 05:44:42;;;;;;;63.78;40.22;;;15.30;99.90;;;;;;5092823;28;20074;-72
2021/06/07 05:47:08;;;;;;;64.53;39.88;;;15.30;99.90;;;;;;5093333;28;20028;-72
2021/06/07 05:49:38;;;;;;;67.95;40.40;;;15.30;99.90;;;;;;5075459;28;20075;-72
2021/06/07 05:52:07;;;;;;;67.93;39.40;;;15.30;99.90;;;;;;5093830;28;20051;-72
2021/06/07 05:54:34;;;;;;;58.03;37.47;;;15.30;99.90;;;;;;5092815;28;20069;-72
2021/06/07 05:56:59;;;;;;;65.75;39.67;;;15.40;99.90;;;;;;5093281;28;20024;-72
2021/06/07 05:59:25;;;;;;;63.20;41.03;;;15.40;99.90;;;;;;5093958;28;20481;-72
2021/06/07 06:01:50;;;;;;;58.53;39.22;;;15.40;99.90;;;;;;5095256;28;20027;-72
2021/06/07 06:04:16;;;;;;;64.45;38.53;;;15.30;99.90;;;;;;5097528;28;20024;-72
2021/06/07 06:07:06;;;;;;;64.22;39.35;;;15.40;99.90;;;;;;5096855;28;20496;-72
2021/06/07 06:09:31;;;;;;;53.85;38.92;;;15.40;99.90;;;;;;5081781;28;20034;-65
2021/06/07 06:12:05;;;;;;;62.88;40.88;;;15.40;99.90;;;;;;5096669;28;20114;-65
2021/06/07 06:14:31;;;;;;;62.45;39.72;;;15.30;99.90;;;;;;5096052;28;20016;-65
2021/06/07 06:16:57;;;;;;;60.35;37.83;;;15.40;99.90;;;;;;5096353;28;20024;-65
2021/06/07 06:19:28;;;;;;;55.38;36.53;;;15.50;99.90;;;;;;5096955;28;20055;-65
2021/06/07 06:22:05;;;;;;;59.85;38.97;;;15.60;99.90;;;;;;5095957;28;20071;-65
2021/06/07 06:24:32;;;;;;;55.65;37.00;;;15.60;99.90;;;;;;5078566;28;20032;-65
2021/06/07 06:26:57;;;;;;;57.03;38.03;;;15.50;99.90;;;;;;5097360;28;20024;-65
2021/06/07 06:29:23;;;;;;;61.58;37.55;;;15.50;99.90;;;;;;5096420;28;20101;-65
2021/06/07 06:31:49;;;;;;;61.35;38.72;;;15.50;99.90;;;;;;5078563;28;20025;-65
2021/06/07 06:34:15;;;;;;;55.55;37.60;;;15.50;99.90;;;;;;5095537;28;20092;-65
2021/06/07 06:36:41;;;;;;;60.55;38.88;;;15.50;99.90;;;;;;5094676;28;20035;-65
2021/06/07 06:39:07;;;;;;;66.57;38.65;;;15.50;99.90;;;;;;5061543;28;20362;-65
2021/06/07 06:41:34;;;;;;;59.25;38.78;;;15.50;99.90;;;;;;5096310;28;20097;-65
2021/06/07 06:44:00;;;;;;;58.63;39.80;;;15.60;99.90;;;;;;5092768;28;20598;-65
2021/06/07 06:46:26;;;;;;;64.95;40.17;;;15.60;99.90;;;;;;5076628;28;20031;-65
2021/06/07 06:48:51;;;;;;;66.30;39.33;;;15.70;99.90;;;;;;5095508;28;20016;-65
2021/06/07 06:51:17;;;;;;;59.83;38.92;;;15.80;99.90;;;;;;5093543;28;20438;-65
2021/06/07 06:53:43;;;;;;;59.20;37.10;;;15.70;99.90;;;;;;5095255;28;20016;-65
2021/06/07 06:56:09;;;;;;;55.58;36.47;;;15.90;99.90;;;;;;5096074;28;20016;-65
2021/06/07 06:58:35;;;;;;;57.92;37.55;;;15.90;99.90;;;;;;5095798;28;20077;-65
2021/06/07 07:01:00;;;;;;;58.17;37.50;;;15.80;99.90;;;;;;5095729;28;20028;-65
2021/06/07 07:03:26;;;;;;;57.35;36.90;;;15.90;99.90;;;;;;5095420;28;20024;-65
2021/06/07 07:05:53;;;;;;;56.90;36.97;;;15.90;99.90;;;;;;5093955;28;20016;-65
2021/06/07 07:08:21;;;;;;;55.15;35.50;;;16.00;99.90;;;;;;5093950;28;20031;-65
2021/06/07 07:10:46;;;;;;;52.42;35.63;;;16.10;99.90;;;;;;5095158;28;20206;-65
2021/06/07 07:13:13;;;;;;;54.63;34.80;;;16.10;99.90;;;;;;5093716;28;20114;-65
2021/06/07 07:15:38;;;;;;;54.80;36.13;;;16.10;99.90;;;;;;5094192;28;20020;-65
2021/06/07 07:18:06;;;;;;;52.75;35.47;;;16.20;99.90;;;;;;5095512;28;20039;-65
2021/06/07 07:20:32;;;;;;;55.88;36.67;;;16.10;99.90;;;;;;5075313;28;20123;-65
2021/06/07 07:22:57;;;;;;;53.35;36.38;;;16.00;99.90;;;;;;5090033;28;20406;-65
2021/06/07 07:25:23;;;;;;;54.25;36.53;;;16.10;99.90;;;;;;5093692;28;20095;-65
2021/06/07 07:27:49;;;;;;;54.05;35.15;;;16.20;99.90;;;;;;5094956;28;20020;-65
2021/06/07 07:30:18;;;;;;;48.22;33.97;;;16.40;99.90;;;;;;5095043;28;20045;-65
2021/06/07 07:32:46;;;;;;;48.35;33.47;;;16.50;99.90;;;;;;5095433;28;20472;-65
2021/06/07 07:35:13;;;;;;;47.45;32.65;;;16.60;99.90;;;;;;5095592;28;20095;-65
2021/06/07 07:37:39;;;;;;;49.22;33.97;;;16.70;99.90;;;;;;5095230;28;20031;-65
2021/06/07 07:40:06;;;;;;;45.47;33.08;;;16.70;99.90;;;;;;5095289;28;20030;-65
2021/06/07 07:42:33;;;;;;;41.50;28.88;;;16.90;99.90;;;;;;5094166;28;20032;-65
2021/06/07 07:45:01;;;;;;;41.53;29.35;;;17.00;99.90;;;;;;5093216;28;20016;-65
2021/06/07 07:47:26;;;;;;;38.60;29.15;;;17.20;99.90;;;;;;5094524;28;20012;-65
2021/06/07 07:49:52;;;;;;;45.28;29.30;;;17.20;99.90;;;;;;5094471;28;20020;-65
2021/06/07 07:52:22;;;;;;;41.67;30.95;;;17.00;99.90;;;;;;5094250;28;20028;-65
2021/06/07 07:54:48;;;;;;;39.72;29.45;;;17.10;99.90;;;;;;5094336;28;20019;-65
2021/06/07 07:57:14;;;;;;;44.95;31.65;;;17.30;99.90;;;;;;5094287;28;20028;-65
2021/06/07 07:59:40;;;;;;;44.35;32.83;;;17.40;99.90;;;;;;5093609;28;20035;-65
2021/06/07 08:02:05;;;;;;;46.40;31.50;;;17.50;99.90;;;;;;5093453;28;20044;-65
2021/06/07 08:04:31;;;;;;;41.95;30.55;;;17.90;99.90;;;;;;5094173;28;20016;-65
2021/06/07 08:06:56;;;;;;;41.40;31.35;;;18.20;99.90;;;;;;5092611;28;20028;-65
2021/06/07 08:09:23;;;;;;;41.42;31.75;;;18.30;99.90;;;;;;5092824;28;20030;-65
2021/06/07 08:11:49;;;;;;;45.10;32.55;;;18.40;99.90;;;;;;5093645;28;20047;-65
2021/06/07 08:14:17;;;;;;;39.88;30.35;;;18.30;99.90;;;;;;5093973;28;20109;-65
2021/06/07 08:16:43;;;;;;;39.40;30.27;;;18.40;99.90;;;;;;5093927;28;20020;-65
2021/06/07 08:19:08;;;;;;;38.15;28.23;;;18.60;99.90;;;;;;5093443;28;20042;-65
2021/06/07 08:21:34;;;;;;;41.05;29.50;;;18.60;99.90;;;;;;5094538;28;20349;-65
2021/06/07 08:24:00;;;;;;;38.28;29.02;;;18.80;99.90;;;;;;5092111;28;20028;-65
2021/06/07 08:26:25;;;;;;;39.95;29.58;;;18.80;99.90;;;;;;5094313;28;20031;-65
2021/06/07 08:28:51;;;;;;;37.25;29.73;;;18.80;99.90;;;;;;5092368;28;20016;-65
2021/06/07 08:31:16;;;;;;;36.88;28.90;;;18.90;99.90;;;;;;5093899;28;20054;-65
2021/06/07 08:33:42;;;;;;;34.75;28.40;;;19.20;99.90;;;;;;5069430;28;20027;-65
2021/06/07 08:36:08;;;;;;;34.42;28.65;;;19.40;99.90;;;;;;5092225;28;20385;-65
2021/06/07 08:38:34;;;;;;;38.70;29.05;;;19.40;99.90;;;;;;5092110;28;20024;-65
2021/06/07 08:40:59;;;;;;;37.05;28.95;;;19.50;99.90;;;;;;5091968;28;20077;-65
2021/06/07 08:43:26;;;;;;;35.60;27.92;;;19.90;99.90;;;;;;5092155;28;20016;-65
2021/06/07 08:45:51;;;;;;;34.17;27.08;;;19.60;99.90;;;;;;5092471;28;20024;-65
2021/06/07 08:48:18;;;;;;;35.38;27.15;;;19.50;99.90;;;;;;5093599;28;20414;-65
2021/06/07 08:50:44;;;;;;;36.42;28.42;;;19.70;99.90;;;;;;5092059;28;20550;-65
2021/06/07 08:53:10;;;;;;;35.97;27.02;;;19.50;99.90;;;;;;5093247;28;20050;-65
2021/06/07 08:55:36;;;;;;;35.47;28.58;;;19.30;99.90;;;;;;5093048;28;20035;-65
2021/06/07 08:58:05;;;;;;;33.83;27.00;;;19.50;99.90;;;;;;5090914;28;20031;-65
2021/06/07 09:00:37;;;;;;;34.83;26.10;;;19.90;99.90;;;;;;5093337;28;20020;-65
2021/06/07 09:03:20;;;;;;;35.53;27.88;;;19.90;99.90;;;;;;5092130;28;20016;-65
2021/06/07 09:05:53;;;;;;;30.35;26.25;;;19.40;99.90;;;;;;5091764;28;20035;-65
2021/06/07 09:08:20;;;;;;;36.70;27.48;;;19.60;99.90;;;;;;5093228;28;20039;-66
2021/06/07 09:10:52;;;;;;;30.52;25.67;;;19.80;99.90;;;;;;5091925;28;20024;-66
2021/06/07 09:13:21;;;;;;;31.95;26.55;;;20.00;99.90;;;;;;5089608;28;20024;-66
2021/06/07 09:15:52;;;;;;;33.50;27.33;;;19.50;99.90;;;;;;5092431;28;20468;-66
2021/06/07 09:18:42;;;;;;;35.63;27.02;;;19.70;99.90;;;;;;5091028;28;20039;-66
2021/06/07 09:21:13;;;;;;;36.58;28.08;;;19.80;99.90;;;;;;5076690;28;20065;-66
2021/06/07 09:23:48;;;;;;;30.45;25.60;;;19.70;99.90;;;;;;5092893;28;20020;-65
2021/06/07 09:26:35;;;;;;;32.17;25.05;;;20.00;99.90;;;;;;5093680;28;20075;-66
2021/06/07 09:29:04;;;;;;;28.10;24.45;;;19.90;99.90;;;;;;5092528;28;20020;-66
2021/06/07 09:34:09;;;;;;;31.70;26.05;;;19.80;99.90;;;;;;5127052;27;20129;-66
2021/06/07 09:36:40;;;;;;;29.38;24.42;;;19.50;99.90;;;;;;5110697;28;20020;-66
2021/06/07 09:41:54;;;;;;;30.20;25.42;;;19.70;99.90;;;;;;5127849;27;20210;-66
2021/06/07 09:44:48;;;;;;;31.95;25.70;;;19.50;99.90;;;;;;5111401;28;20044;-67
2021/06/07 09:47:31;;;;;;;34.05;25.63;;;19.70;99.90;;;;;;5111971;28;20020;-66
2021/06/07 09:50:02;;;;;;;33.75;25.75;;;19.80;99.90;;;;;;5109422;28;20028;-67
2021/06/07 09:52:34;;;;;;;32.30;25.67;;;20.00;99.90;;;;;;5111183;28;20024;-66
2021/06/07 09:55:21;;;;;;;32.42;24.85;;;20.00;99.90;;;;;;5110041;28;20028;-67
2021/06/07 09:57:53;;;;;;;26.00;23.10;;;20.00;99.90;;;;;;5111063;28;20032;-66
2021/06/07 10:00:42;;;;;;;31.67;24.00;;;19.90;99.90;;;;;;5110277;28;20122;-67
2021/06/07 10:03:28;;;;;;;26.33;22.90;;;20.10;99.90;;;;;;5091361;28;20028;-67
2021/06/07 10:05:58;;;;;;;27.13;21.85;;;20.10;99.90;;;;;;5097587;28;20016;-66
2021/06/07 10:08:42;;;;;;;26.65;20.95;;;20.40;99.90;;;;;;5111400;28;20127;-66
2021/06/07 10:11:19;;;;;;;24.50;21.55;;;19.90;99.90;;;;;;5110610;28;20028;-66
2021/06/07 10:13:45;;;;;;;27.38;21.05;;;20.00;99.90;;;;;;5108707;28;20050;-67
2021/06/07 10:16:11;;;;;;;23.33;20.42;;;20.30;99.90;;;;;;5109734;28;20465;-67
2021/06/07 10:18:36;;;;;;;26.40;19.75;;;20.40;99.90;;;;;;5110085;28;20384;-67
2021/06/07 10:21:04;;;;;;;24.05;20.42;;;20.50;99.90;;;;;;5107963;28;20501;-67
2021/06/07 10:23:44;;;;;;;21.65;18.83;;;20.80;99.90;;;;;;5109943;28;20024;-67
2021/06/07 10:26:09;;;;;;;22.05;19.13;;;21.40;99.90;;;;;;5109947;28;20507;-67
2021/06/07 10:28:38;;;;;;;24.00;18.67;;;21.20;99.90;;;;;;5110929;28;20028;-67
2021/06/07 10:31:10;;;;;;;20.02;17.73;;;21.10;99.90;;;;;;5110242;28;20016;-67
2021/06/07 10:33:38;;;;;;;25.17;19.48;;;21.30;99.90;;;;;;5110212;28;20024;-67
2021/06/07 10:44:37;;;;;;;19.83;17.73;;;21.10;99.90;;;;;;5106477;27;20183;-65
2021/06/07 10:47:06;;;;;;;19.60;17.60;;;21.40;99.90;;;;;;5090986;28;20040;-65
2021/06/07 10:49:41;;;;;;;18.48;16.50;;;21.60;99.90;;;;;;5089772;28;20017;-65
2021/06/07 10:52:13;;;;;;;18.92;16.17;;;21.50;99.90;;;;;;5091187;28;20021;-65
2021/06/07 10:54:40;;;;;;;18.50;15.13;;;21.50;99.90;;;;;;5091034;28;20027;-65
2021/06/07 10:57:28;;;;;;;18.90;14.88;;;21.10;99.90;;;;;;5091226;28;20017;-65
2021/06/07 10:59:58;;;;;;;16.45;13.38;;;21.00;99.90;;;;;;5089670;28;20022;-65
2021/06/07 11:02:30;;;;;;;16.35;13.38;;;21.40;99.90;;;;;;5088799;28;20016;-65
2021/06/07 11:05:18;;;;;;;15.43;12.90;;;21.50;99.90;;;;;;5090237;28;20442;-65
2021/06/07 11:08:00;;;;;;;13.90;12.50;;;21.30;99.90;;;;;;5090560;28;20025;-65
2021/06/07 11:10:35;;;;;;;18.83;13.55;;;21.10;99.90;;;;;;5089047;28;20066;-65
2021/06/07 11:13:05;;;;;;;15.98;13.85;;;21.00;99.90;;;;;;5088647;28;20028;-65
2021/06/07 11:15:36;;;;;;;17.58;14.23;;;20.90;99.90;;;;;;5090180;28;20025;-65
2021/06/07 11:18:40;;;;;;;16.88;15.18;;;20.40;99.90;;;;;;5089198;28;20103;-65
2021/06/07 11:21:10;;;;;;;16.45;14.75;;;20.20;99.90;;;;;;5090567;28;20013;-65
2021/06/07 11:23:43;;;;;;;18.73;16.73;;;20.00;99.90;;;;;;5090382;28;20393;-65
2021/06/07 11:26:11;;;;;;;16.85;15.10;;;20.20;99.90;;;;;;5090189;28;20016;-65
2021/06/07 11:34:00;;;;;;;16.95;14.85;;;19.90;99.90;;;;;;5126733;27;20137;-65
2021/06/07 11:39:28;;;;;;;19.55;16.45;;;20.10;99.90;;;;;;5128047;27;20182;-65
2021/06/07 11:42:02;;;;;;;19.83;16.83;;;20.00;99.90;;;;;;5110841;28;20098;-65
2021/06/07 11:44:47;;;;;;;22.63;17.70;;;20.30;99.90;;;;;;5111073;28;20020;-66
2021/06/07 11:47:22;;;;;;;20.80;17.38;;;20.50;99.90;;;;;;5109338;28;20028;-65
2021/06/07 11:52:48;;;;;;;19.02;16.60;;;20.80;99.90;;;;;;5113350;27;20133;-65
2021/06/07 11:58:13;;;;;;;18.63;16.73;;;20.40;99.90;;;;;;5118669;27;20598;-66
2021/06/07 12:00:42;;;;;;;20.58;16.13;;;20.50;99.90;;;;;;5072957;28;20025;-65
2021/06/07 12:03:11;;;;;;;17.42;15.63;;;20.70;99.90;;;;;;5090193;28;20029;-65
2021/06/07 12:05:37;;;;;;;19.20;16.50;;;20.80;99.90;;;;;;5089387;28;20016;-65
2021/06/07 12:08:08;;;;;;;18.20;15.73;;;21.00;99.90;;;;;;5090632;28;20040;-65
2021/06/07 12:10:35;;;;;;;19.38;15.43;;;21.20;99.90;;;;;;5073189;28;20058;-65
2021/06/07 12:13:14;;;;;;;16.75;14.95;;;21.20;99.90;;;;;;5088974;28;20024;-65
2021/06/07 12:15:41;;;;;;;22.02;17.55;;;20.80;99.90;;;;;;5089152;28;20016;-65
2021/06/07 12:18:07;;;;;;;20.83;18.00;;;20.60;99.90;;;;;;5089745;28;20110;-65
2021/06/07 12:20:33;;;;;;;22.45;18.38;;;20.40;99.90;;;;;;5090817;28;20450;-65
2021/06/07 12:23:02;;;;;;;23.02;19.23;;;20.20;99.90;;;;;;5090974;28;20028;-65
2021/06/07 12:25:45;;;;;;;20.85;18.63;;;20.30;99.90;;;;;;5089154;28;20016;-65
2021/06/07 12:28:26;;;;;;;20.67;18.08;;;20.40;99.90;;;;;;5089978;28;20025;-64
2021/06/07 12:30:55;;;;;;;20.38;17.52;;;20.90;99.90;;;;;;5075260;28;20119;-65
2021/06/07 12:33:33;;;;;;;19.77;17.52;;;20.70;99.90;;;;;;5089374;28;20097;-66
2021/06/07 12:36:03;;;;;;;18.75;16.75;;;20.90;99.90;;;;;;5090299;28;20029;-66
2021/06/07 12:38:39;;;;;;;21.70;18.33;;;20.90;99.90;;;;;;5090783;28;20100;-66
2021/06/07 12:41:05;;;;;;;19.88;17.58;;;20.90;99.90;;;;;;5089689;28;20483;-66
2021/06/07 12:43:31;;;;;;;24.70;19.42;;;20.90;99.90;;;;;;5071953;28;20059;-66
2021/06/07 12:46:01;;;;;;;21.63;18.52;;;21.20;99.90;;;;;;5089448;28;20024;-66
2021/06/07 12:48:30;;;;;;;20.95;18.70;;;21.20;99.90;;;;;;5072136;28;20389;-66
2021/06/07 12:51:03;;;;;;;21.05;18.42;;;21.10;99.90;;;;;;5071833;28;20469;-66
2021/06/07 12:53:33;;;;;;;21.70;19.23;;;21.20;99.90;;;;;;5088378;28;20099;-66
2021/06/07 12:56:04;;;;;;;21.77;19.38;;;21.20;99.90;;;;;;5088490;28;20044;-66
2021/06/07 12:58:30;;;;;;;23.73;21.30;;;20.80;99.90;;;;;;5088923;28;20137;-66
2021/06/07 13:03:35;;;;;;;25.05;20.40;;;20.50;99.90;;;;;;5127903;27;20129;-65
2021/06/07 13:06:06;;;;;;;22.92;20.20;;;20.50;99.90;;;;;;5110547;28;20020;-65